Muenster, Germany

5:24 AM CEST on October 22, 2014 (GMT +0200)
Munster-Osnabruck | Change Station
CLOSE
Current Station
Airport
Location: Muenster,
Elevation: 157 ft
Nearby Weather Stations

Elev 157 ft 52.13 °N, 7.70 °E | Updated 4 minutes ago

Clear
Clear
46 °F
Feels Like 40 °F
N
15
Wind Variable Wind from West

Today
High -- | Low -- °F
--% Chance of Precip.
Yesterday
High -- | Low -- °F
Precip. -- in
8:06 AM 6:20 PM
Waning Crescent, 3% visible
Pressure 29.77 in
Visibility -9999.0 miles
Clouds
Windchill 40 °F
Dew Point 43 °F
Humidity 87%
Rainfall 0.00 in
Snow Depth Not available.
UV Not available.
Pollen Not available.
Air Quality Not available.
Flu Activity Not available.
METAR EDDG 220320Z 26013KT CAVOK 08/06 Q1008 TEMPO SHRA

More Conditions Fewer Conditions

Pressure 29.77 in
Visibility -9999.0 miles
Clouds
Windchill 40 °F
Dew Point 43 °F
Humidity 87%
Rainfall 0.00 in
Snow Depth Not available.
UV Not available.
Pollen Not available.
Air Quality Not available.
Flu Activity Not available.
METAR EDDG 220320Z 26013KT CAVOK 08/06 Q1008 TEMPO SHRA

More Conditions Fewer Conditions

10-Day Weather Forecast

Almanac

Astronomy

Oct. 22, 2014 Rise Set
Actual Time 8:06 AM CEST 6:20 PM CEST
Civil Twilight 7:31 AM CEST 6:55 PM CEST
Nautical Twilight 6:51 AM CEST 7:34 PM CEST
Astronomical Twilight 6:12 AM CEST 8:13 PM CEST
Moon 6:20 AM CEST 5:46 PM CEST
Length of Visible Light 11h 23m
Length of Day
10h 14m
Tomorrow will be 3m 50s shorter.
Waning Crescent, 3% of the Moon is Illuminated
Oct 21
Waning Crescent
Oct 23
New
Oct 30
First Quarter
Nov 6
Full
Nov 14
Last Quarter

Yesterday's Extremes

Country Highs Country Lows

Community

WunderPhotos

Upload Photos

1,763,874 photos uploaded!

Nearby

Snow Depth

Not available.

Earthquake Activity

City Distance Mag. Time & Date
No recent earthquake activity has been reported nearby.
Minimum magnitude displayed is 2.5.

Coastal Water Temperatures

Place Temperature
No Stations Reporting

Nearby Weather Stations